createdAt,value
2022-07-29T00:04:45.885Z,42.64
2022-07-29T00:09:51.857Z,42.74
2022-07-29T00:15:20.699Z,42.91
2022-07-29T00:20:42.674Z,42.89
2022-07-29T00:31:16.128Z,42.92
2022-07-29T00:36:26.612Z,43.02
2022-07-29T00:41:30.776Z,42.80
2022-07-29T00:46:37.967Z,42.97
2022-07-29T00:51:41.241Z,42.87
2022-07-29T00:56:44.048Z,43.00
2022-07-29T01:02:05.030Z,42.84
2022-07-29T01:07:07.979Z,42.87
2022-07-29T01:12:19.767Z,42.87
2022-07-29T01:17:27.046Z,43.10
2022-07-29T01:22:38.913Z,42.94
2022-07-29T01:27:50.350Z,43.00
2022-07-29T01:33:36.044Z,42.92
2022-07-29T01:38:41.674Z,43.24
2022-07-29T01:43:50.125Z,43.30
2022-07-29T01:48:57.381Z,43.06
2022-07-29T01:54:04.268Z,43.13
2022-07-29T01:59:45.131Z,43.36
2022-07-29T02:04:50.099Z,43.34
2022-07-29T02:09:53.716Z,43.33
2022-07-29T02:14:56.751Z,43.25
2022-07-29T02:20:18.564Z,43.44
2022-07-29T02:25:38.374Z,43.51
2022-07-29T02:30:47.924Z,43.36
2022-07-29T02:35:53.032Z,43.45
2022-07-29T02:40:56.266Z,43.62
2022-07-29T02:46:00.568Z,43.74
2022-07-29T02:51:43.607Z,43.49
2022-07-29T02:56:47.920Z,43.74
2022-07-29T03:01:51.038Z,43.52
2022-07-29T03:06:55.445Z,43.59
2022-07-29T03:11:58.566Z,43.68
2022-07-29T03:17:01.533Z,43.55
2022-07-29T03:22:05.797Z,43.76
2022-07-29T03:27:08.548Z,43.79
2022-07-29T03:32:11.275Z,43.66
2022-07-29T03:37:15.243Z,43.67
2022-07-29T03:42:42.565Z,43.75
2022-07-29T03:47:50.880Z,43.83
2022-07-29T03:52:55.755Z,43.83
2022-07-29T03:57:59.044Z,43.70
2022-07-29T04:03:01.819Z,43.83
2022-07-29T04:08:06.404Z,43.77
2022-07-29T04:13:09.091Z,43.82
2022-07-29T04:18:11.736Z,43.90
2022-07-29T04:23:15.704Z,43.85
2022-07-29T04:28:18.368Z,43.88
2022-07-29T04:33:40.180Z,43.70
2022-07-29T04:38:44.280Z,43.76
2022-07-29T04:43:47.023Z,43.75
2022-07-29T04:48:49.945Z,43.64
2022-07-29T04:53:54.054Z,43.83
2022-07-29T04:58:56.673Z,43.85
2022-07-29T05:04:00.735Z,43.84
2022-07-29T05:09:04.992Z,43.98
2022-07-29T05:14:07.637Z,43.86
2022-07-29T05:19:14.116Z,43.73
2022-07-29T05:24:26.421Z,43.74
2022-07-29T05:29:43.938Z,44.00
2022-07-29T05:34:51.264Z,43.68
2022-07-29T05:39:56.741Z,43.75
2022-07-29T05:45:00.184Z,43.90
2022-07-29T05:50:02.919Z,43.64
2022-07-29T05:55:07.542Z,43.57
2022-07-29T06:00:11.690Z,43.85
2022-07-29T06:05:17.427Z,43.59
2022-07-29T06:10:23.929Z,43.81
2022-07-29T06:15:29.026Z,43.80
2022-07-29T06:20:59.778Z,43.47
2022-07-29T06:26:05.123Z,43.73
2022-07-29T06:31:08.066Z,43.87
2022-07-29T06:36:19.722Z,44.21
2022-07-29T06:41:25.718Z,43.90
2022-07-29T06:46:28.692Z,43.63
2022-07-29T06:51:31.433Z,43.78
2022-07-29T06:56:38.940Z,43.72
2022-07-29T07:01:44.422Z,44.00
2022-07-29T07:06:47.161Z,43.85
2022-07-29T07:11:51.158Z,43.93
2022-07-29T07:16:53.890Z,43.96
2022-07-29T07:22:06.176Z,43.98
2022-07-29T07:27:10.214Z,44.07
2022-07-29T07:32:14.155Z,44.09
2022-07-29T07:37:16.992Z,44.29
2022-07-29T07:42:21.286Z,44.13
2022-07-29T07:47:25.333Z,43.98
2022-07-29T07:52:58.418Z,44.11
2022-07-29T07:58:02.420Z,44.03
2022-07-29T08:03:05.467Z,44.20
2022-07-29T08:08:19.925Z,44.21
2022-07-29T08:13:26.048Z,44.24
2022-07-29T08:18:30.306Z,44.20
2022-07-29T08:23:46.439Z,44.23
2022-07-29T08:28:52.712Z,44.30
2022-07-29T08:33:57.010Z,44.50
2022-07-29T08:38:59.675Z,44.41
2022-07-29T08:44:03.758Z,44.25
2022-07-29T08:49:06.483Z,44.56
2022-07-29T08:54:10.264Z,44.61
2022-07-29T08:59:14.989Z,44.66
2022-07-29T09:04:18.254Z,44.36
2022-07-29T09:09:34.164Z,44.73
2022-07-29T09:14:38.183Z,44.59
2022-07-29T09:19:45.529Z,44.66
2022-07-29T09:24:49.259Z,44.94
2022-07-29T09:30:00.737Z,44.61
2022-07-29T09:35:17.507Z,44.90
2022-07-29T09:40:29.484Z,44.62
2022-07-29T09:45:34.739Z,44.81
2022-07-29T09:50:39.315Z,44.84
2022-07-29T09:55:49.513Z,45.01
2022-07-29T10:00:55.687Z,44.73
2022-07-29T10:06:09.241Z,44.87
2022-07-29T10:11:13.449Z,44.97
2022-07-29T10:16:18.798Z,45.04
2022-07-29T10:21:22.464Z,45.08
2022-07-29T10:26:41.841Z,44.91
2022-07-29T10:37:22.275Z,45.06
2022-07-29T10:48:07.816Z,45.00
2022-07-29T10:59:45.353Z,45.34
2022-07-29T11:05:05.221Z,45.22
2022-07-29T11:10:22.022Z,45.62
2022-07-29T11:15:32.164Z,45.49
2022-07-29T11:20:37.982Z,45.49
2022-07-29T11:25:42.977Z,45.30
2022-07-29T11:30:56.083Z,45.66
2022-07-29T11:36:28.136Z,45.43
2022-07-29T11:41:36.931Z,45.96
2022-07-29T11:46:49.718Z,45.54
2022-07-29T11:51:55.008Z,45.58
2022-07-29T11:56:59.801Z,45.75
2022-07-29T12:02:36.580Z,45.94
2022-07-29T12:07:33.788Z,46.45
2022-07-29T12:12:39.485Z,45.93
2022-07-29T12:17:46.036Z,46.22
2022-07-29T12:22:50.299Z,46.04
2022-07-29T12:28:03.890Z,46.37
2022-07-29T12:33:25.502Z,46.41
2022-07-29T12:39:38.520Z,46.80
2022-07-29T12:44:48.672Z,47.72
2022-07-29T12:49:54.730Z,47.53
2022-07-29T12:54:57.465Z,47.26
2022-07-29T13:00:03.836Z,47.30
2022-07-29T13:05:16.121Z,46.97
2022-07-29T13:10:20.001Z,46.74
2022-07-29T13:15:27.471Z,46.92
2022-07-29T13:26:07.556Z,46.66
2022-07-29T13:31:10.341Z,46.82
2022-07-29T13:36:13.142Z,46.82
2022-07-29T13:41:17.246Z,46.56
2022-07-29T13:46:21.106Z,46.32
2022-07-29T13:51:23.954Z,46.39
2022-07-29T13:56:28.208Z,46.26
2022-07-29T14:13:55.224Z,46.32
2022-07-29T14:18:57.963Z,46.12
2022-07-29T14:24:00.681Z,46.19
2022-07-29T14:29:04.760Z,46.15
2022-07-29T14:34:07.545Z,46.54
2022-07-29T14:39:10.237Z,46.34
2022-07-29T14:44:16.714Z,46.25
2022-07-29T14:49:19.480Z,46.44
2022-07-29T14:54:22.257Z,46.44
2022-07-29T14:59:35.144Z,46.31
2022-07-29T15:04:37.814Z,46.38
2022-07-29T15:10:06.241Z,46.15
2022-07-29T15:15:31.603Z,46.20
2022-07-29T15:20:34.366Z,46.34
2022-07-29T15:25:38.040Z,46.28
2022-07-29T15:30:42.776Z,46.25
2022-07-29T15:35:45.468Z,45.96
2022-07-29T15:40:48.180Z,46.08
2022-07-29T15:46:06.322Z,46.04
2022-07-29T15:51:09.134Z,46.99
2022-07-29T15:56:12.851Z,47.73
2022-07-29T16:01:17.247Z,47.59
2022-07-29T16:06:20.095Z,47.66
2022-07-29T16:11:22.829Z,48.07
2022-07-29T16:16:26.925Z,47.99
2022-07-29T16:21:31.473Z,47.84
2022-07-29T16:26:34.292Z,47.78
2022-07-29T16:31:38.441Z,47.90
2022-07-29T16:36:45.988Z,47.98
2022-07-29T16:41:50.410Z,47.51
2022-07-29T16:46:56.105Z,47.67
2022-07-29T16:52:01.829Z,47.45
2022-07-29T16:57:04.619Z,47.60
2022-07-29T17:02:09.047Z,47.53
2022-07-29T17:07:11.851Z,47.25
2022-07-29T17:12:14.535Z,47.44
2022-07-29T17:17:20.658Z,47.34
2022-07-29T17:22:29.938Z,47.31
2022-07-29T17:27:33.226Z,47.10
2022-07-29T17:32:38.708Z,46.98
2022-07-29T17:37:41.455Z,47.01
2022-07-29T17:42:44.188Z,46.85
2022-07-29T17:47:48.235Z,46.85
2022-07-29T17:52:50.902Z,47.03
2022-07-29T17:57:57.151Z,47.04
2022-07-29T18:03:03.898Z,46.93
2022-07-29T18:08:07.087Z,46.82
2022-07-29T18:13:10.005Z,46.83
2022-07-29T18:18:14.943Z,46.77
2022-07-29T18:23:17.840Z,46.52
2022-07-29T18:28:20.717Z,46.57
2022-07-29T18:33:24.849Z,46.63
2022-07-29T18:38:27.558Z,46.25
2022-07-29T18:43:30.230Z,46.35
2022-07-29T18:48:34.474Z,46.26
2022-07-29T18:53:37.700Z,46.38
2022-07-29T18:58:40.454Z,46.27
2022-07-29T19:03:44.550Z,46.22
2022-07-29T19:08:47.247Z,46.23
2022-07-29T19:13:49.988Z,45.87
2022-07-29T19:18:54.663Z,45.90
2022-07-29T19:24:05.806Z,45.89
2022-07-29T19:29:10.405Z,45.96
2022-07-29T19:34:14.405Z,45.67
2022-07-29T19:39:17.055Z,45.85
2022-07-29T19:44:19.787Z,45.61
2022-07-29T19:49:23.935Z,45.66
2022-07-29T19:54:26.832Z,45.98
2022-07-29T19:59:29.660Z,45.75
2022-07-29T20:04:33.692Z,45.86
2022-07-29T20:09:39.940Z,45.86
2022-07-29T20:14:42.705Z,45.96
2022-07-29T20:19:47.051Z,46.16
2022-07-29T20:24:50.047Z,45.84
2022-07-29T20:29:52.789Z,45.91
2022-07-29T20:34:56.790Z,46.00
2022-07-29T20:39:59.664Z,45.95
2022-07-29T20:45:05.578Z,45.88
2022-07-29T20:50:12.825Z,46.11
2022-07-29T20:55:15.919Z,46.04
2022-07-29T21:00:18.818Z,46.07
2022-07-29T21:05:22.880Z,46.03
2022-07-29T21:10:25.660Z,46.01
2022-07-29T21:15:29.638Z,45.93
2022-07-29T21:20:33.747Z,46.22
2022-07-29T21:25:36.392Z,45.89
2022-07-29T21:30:39.039Z,46.07
2022-07-29T21:36:02.015Z,45.91
2022-07-29T21:41:06.218Z,46.04
2022-07-29T21:46:09.233Z,46.09
2022-07-29T21:51:13.414Z,45.97
2022-07-29T21:56:16.049Z,46.12
2022-07-29T22:01:20.909Z,46.08
2022-07-29T22:06:24.941Z,45.99
2022-07-29T22:11:27.682Z,46.34
2022-07-29T22:16:30.421Z,46.31
2022-07-29T22:21:34.539Z,46.20
2022-07-29T22:26:37.205Z,46.30
2022-07-29T22:31:39.908Z,46.17
2022-07-29T22:36:43.932Z,46.12
2022-07-29T22:41:46.604Z,46.30
2022-07-29T22:46:49.322Z,46.27
2022-07-29T22:51:53.324Z,46.16
2022-07-29T22:56:56.145Z,46.46
2022-07-29T23:01:58.958Z,46.12
2022-07-29T23:07:03.209Z,46.43
2022-07-29T23:12:06.317Z,46.36
2022-07-29T23:17:09.123Z,46.28
2022-07-29T23:22:13.216Z,46.21
2022-07-29T23:27:15.950Z,46.28
2022-07-29T23:32:18.698Z,46.35
2022-07-29T23:37:22.756Z,46.42
2022-07-29T23:42:25.457Z,46.37
2022-07-29T23:47:28.946Z,46.31
2022-07-29T23:52:32.974Z,46.40
2022-07-29T23:57:38.493Z,46.63
